createdAt,value
2023-02-26T00:00:54.543Z,74.76
2023-02-26T00:01:58.393Z,74.74
2023-02-26T00:03:00.076Z,74.42
2023-02-26T00:04:04.676Z,74.26
2023-02-26T00:05:07.066Z,74.47
2023-02-26T00:06:09.532Z,74.14
2023-02-26T00:07:11.146Z,74.10
2023-02-26T00:08:12.711Z,73.99
2023-02-26T00:09:14.292Z,73.89
2023-02-26T00:10:16.690Z,73.63
2023-02-26T00:11:18.531Z,73.17
2023-02-26T00:12:20.448Z,72.82
2023-02-26T00:13:22.399Z,72.16
2023-02-26T00:14:24.767Z,72.56
2023-02-26T00:15:26.847Z,71.81
2023-02-26T00:16:33.500Z,71.54
2023-02-26T00:17:49.124Z,71.79
2023-02-26T00:18:50.985Z,71.88
2023-02-26T00:19:52.789Z,72.01
2023-02-26T00:20:55.322Z,71.82
2023-02-26T00:21:57.130Z,72.04
2023-02-26T00:22:59.007Z,72.23
2023-02-26T00:24:02.162Z,72.18
2023-02-26T00:25:04.091Z,72.35
2023-02-26T00:26:05.639Z,72.46
2023-02-26T00:27:07.708Z,72.24
2023-02-26T00:28:09.698Z,72.80
2023-02-26T00:29:11.497Z,72.34
2023-02-26T00:30:13.662Z,72.37
2023-02-26T00:31:16.888Z,72.24
2023-02-26T00:32:18.899Z,72.16
2023-02-26T00:33:20.880Z,72.20
2023-02-26T00:34:22.833Z,72.55
2023-02-26T00:35:24.727Z,72.16
2023-02-26T00:36:41.493Z,72.02
2023-02-26T00:37:56.054Z,71.80
2023-02-26T00:39:05.110Z,71.65
2023-02-26T00:40:21.796Z,71.87
2023-02-26T00:41:23.674Z,72.01
2023-02-26T00:42:26.001Z,71.68
2023-02-26T00:43:27.868Z,72.08
2023-02-26T00:44:29.768Z,72.56
2023-02-26T00:45:32.076Z,72.03
2023-02-26T00:46:55.949Z,72.26
2023-02-26T00:48:13.283Z,72.03
2023-02-26T00:49:18.003Z,71.68
2023-02-26T00:50:25.242Z,71.73
2023-02-26T00:51:40.955Z,72.19
2023-02-26T00:52:47.291Z,71.29
2023-02-26T00:54:09.506Z,71.03
2023-02-26T00:55:11.199Z,70.40
2023-02-26T00:56:14.144Z,70.39
2023-02-26T00:57:15.734Z,70.58
2023-02-26T00:58:17.303Z,70.78
2023-02-26T00:59:20.073Z,70.08
2023-02-26T01:00:22.186Z,70.61
2023-02-26T01:01:23.880Z,70.07
2023-02-26T01:02:25.798Z,70.37
2023-02-26T01:03:27.597Z,70.56
2023-02-26T01:04:29.416Z,70.45
2023-02-26T01:05:31.445Z,70.21
2023-02-26T01:06:34.891Z,70.11
2023-02-26T01:07:47.241Z,69.04
2023-02-26T01:09:11.021Z,69.14
2023-02-26T01:10:14.536Z,69.43
2023-02-26T01:11:16.420Z,69.42
2023-02-26T01:12:18.168Z,69.32
2023-02-26T01:13:20.119Z,69.00
2023-02-26T01:14:23.175Z,68.91
2023-02-26T01:15:25.601Z,68.82
2023-02-26T01:16:30.126Z,68.43
2023-02-26T01:17:39.738Z,68.56
2023-02-26T01:18:46.377Z,68.54
2023-02-26T01:20:01.015Z,68.36
2023-02-26T01:21:14.785Z,67.96
2023-02-26T01:22:22.278Z,67.82
2023-02-26T01:23:27.004Z,67.99
2023-02-26T01:24:31.062Z,67.69
2023-02-26T01:25:59.987Z,68.01
2023-02-26T01:27:01.690Z,68.09
2023-02-26T01:28:03.423Z,68.42
2023-02-26T01:29:05.151Z,68.89
2023-02-26T01:30:08.059Z,69.31
2023-02-26T01:31:27.048Z,69.51
2023-02-26T01:32:42.417Z,69.30
2023-02-26T01:33:55.866Z,69.88
2023-02-26T01:35:03.239Z,70.30
2023-02-26T01:36:12.698Z,71.13
2023-02-26T01:37:19.840Z,71.44
2023-02-26T01:38:44.030Z,71.23
2023-02-26T01:40:02.625Z,70.63
2023-02-26T01:41:25.497Z,70.39
2023-02-26T01:42:35.422Z,69.77
2023-02-26T01:43:51.268Z,69.79
2023-02-26T01:45:11.074Z,69.73
2023-02-26T01:46:18.640Z,69.82
2023-02-26T01:47:22.891Z,68.96
2023-02-26T01:48:53.020Z,68.93
2023-02-26T01:49:55.727Z,69.20
2023-02-26T01:50:57.396Z,69.36
2023-02-26T01:52:00.929Z,69.16
2023-02-26T01:53:24.747Z,68.67
2023-02-26T01:54:32.341Z,68.49
2023-02-26T01:55:34.104Z,68.33
2023-02-26T01:56:36.467Z,68.42
2023-02-26T01:57:38.062Z,68.43
2023-02-26T01:58:40.129Z,68.49
2023-02-26T01:59:45.380Z,68.25
2023-02-26T02:00:47.107Z,68.14
2023-02-26T02:01:48.731Z,68.07
2023-02-26T02:02:50.960Z,67.60
2023-02-26T02:03:52.971Z,68.38
2023-02-26T02:04:54.697Z,68.69
2023-02-26T02:06:18.247Z,69.03
2023-02-26T02:07:19.875Z,69.40
2023-02-26T02:08:22.368Z,70.09
2023-02-26T02:09:23.984Z,70.15
2023-02-26T02:10:26.463Z,70.41
2023-02-26T02:11:28.060Z,70.51
2023-02-26T02:12:46.205Z,70.88
2023-02-26T02:13:50.462Z,71.88
2023-02-26T02:14:54.810Z,72.00
2023-02-26T02:16:29.917Z,72.77
2023-02-26T02:17:40.374Z,73.48
2023-02-26T02:18:58.806Z,74.23
2023-02-26T02:20:28.399Z,74.45
2023-02-26T02:21:38.899Z,75.16
2023-02-26T02:23:10.562Z,75.97
2023-02-26T02:24:20.155Z,75.99
2023-02-26T02:25:49.437Z,76.98
2023-02-26T02:27:55.486Z,77.20
2023-02-26T02:29:10.760Z,76.70
2023-02-26T02:30:17.941Z,76.72
2023-02-26T02:31:26.266Z,76.80
2023-02-26T02:32:29.845Z,76.34
2023-02-26T02:33:40.726Z,76.15
2023-02-26T02:34:59.374Z,76.04
2023-02-26T02:36:13.349Z,75.58
2023-02-26T02:37:25.517Z,75.83
2023-02-26T02:38:36.899Z,75.83
2023-02-26T02:39:46.692Z,75.84
2023-02-26T02:40:55.125Z,76.55
2023-02-26T02:42:03.267Z,76.70
2023-02-26T02:43:11.051Z,76.84
2023-02-26T02:44:19.225Z,77.51
2023-02-26T02:45:47.191Z,77.87
2023-02-26T02:46:52.892Z,77.55
2023-02-26T02:48:01.612Z,77.18
2023-02-26T02:49:18.533Z,77.07
2023-02-26T02:50:28.225Z,77.37
2023-02-26T02:51:37.824Z,77.79
2023-02-26T02:52:49.031Z,77.45
2023-02-26T02:54:03.593Z,77.61
2023-02-26T02:55:18.549Z,78.00
2023-02-26T02:56:25.847Z,77.30
2023-02-26T02:57:37.507Z,77.33
2023-02-26T02:58:50.725Z,77.48
2023-02-26T02:59:58.004Z,77.53
2023-02-26T03:01:06.258Z,77.80
2023-02-26T03:02:23.609Z,77.69
2023-02-26T03:03:28.597Z,77.62
2023-02-26T03:04:30.298Z,77.84
2023-02-26T03:05:32.255Z,78.01
2023-02-26T03:06:34.536Z,78.37
2023-02-26T03:07:43.542Z,78.49
2023-02-26T03:08:47.458Z,78.64
2023-02-26T03:09:49.282Z,78.49
2023-02-26T03:10:51.010Z,78.69
2023-02-26T03:11:52.617Z,78.99
2023-02-26T03:12:54.156Z,79.01
2023-02-26T03:13:56.146Z,78.68
2023-02-26T03:14:57.906Z,78.80
2023-02-26T03:16:05.439Z,78.71
2023-02-26T03:17:21.145Z,79.06
2023-02-26T03:18:46.186Z,78.21
2023-02-26T03:20:06.948Z,78.37
2023-02-26T03:21:33.273Z,78.79
2023-02-26T03:22:49.398Z,79.62
2023-02-26T03:24:06.211Z,79.78
2023-02-26T03:25:18.200Z,79.71
2023-02-26T03:26:34.295Z,79.71
2023-02-26T03:28:04.924Z,79.29
2023-02-26T03:29:41.921Z,79.60
2023-02-26T03:31:17.259Z,79.93
2023-02-26T03:32:50.448Z,79.70
2023-02-26T03:34:00.564Z,80.10
2023-02-26T03:35:10.857Z,80.08
2023-02-26T03:36:19.882Z,80.84
2023-02-26T03:37:28.277Z,80.85
2023-02-26T03:38:51.407Z,80.61
2023-02-26T03:39:57.942Z,80.75
2023-02-26T03:41:16.138Z,80.42
2023-02-26T03:42:24.039Z,80.63
2023-02-26T03:43:55.583Z,80.91
2023-02-26T03:45:06.589Z,80.45
2023-02-26T03:46:13.691Z,80.83
2023-02-26T03:47:17.041Z,79.97
2023-02-26T03:48:25.196Z,80.26
2023-02-26T03:49:49.541Z,80.02
2023-02-26T03:50:56.610Z,79.96
2023-02-26T03:52:01.020Z,80.17
2023-02-26T03:53:06.441Z,79.87
2023-02-26T03:54:18.131Z,79.94
2023-02-26T03:55:25.191Z,80.21
2023-02-26T03:56:37.088Z,80.79
2023-02-26T03:57:39.567Z,80.49
2023-02-26T03:58:41.547Z,80.75
2023-02-26T03:59:43.427Z,81.21
2023-02-26T04:00:50.359Z,81.93
2023-02-26T04:01:55.599Z,80.85
2023-02-26T04:03:02.750Z,80.77
2023-02-26T04:04:11.541Z,80.62
2023-02-26T04:05:19.021Z,80.78
2023-02-26T04:06:22.798Z,79.87
2023-02-26T04:07:25.136Z,79.70
2023-02-26T04:08:29.650Z,79.70
2023-02-26T04:09:31.279Z,79.85
2023-02-26T04:10:42.086Z,79.37
2023-02-26T04:11:44.003Z,79.09
2023-02-26T04:12:45.802Z,79.57
2023-02-26T04:13:47.610Z,79.46
2023-02-26T04:14:50.211Z,78.85
2023-02-26T04:15:52.206Z,78.79
2023-02-26T04:16:54.030Z,79.34
2023-02-26T04:17:55.651Z,78.68
2023-02-26T04:18:57.301Z,78.94
2023-02-26T04:19:58.924Z,78.79
2023-02-26T04:21:00.617Z,79.19
2023-02-26T04:22:02.191Z,78.79
2023-02-26T04:23:03.920Z,78.87
2023-02-26T04:24:05.707Z,79.23
2023-02-26T04:25:07.605Z,78.79
2023-02-26T04:26:09.184Z,78.56
2023-02-26T04:27:10.705Z,78.46
2023-02-26T04:28:13.168Z,78.70
2023-02-26T04:29:14.872Z,78.69
2023-02-26T04:30:16.808Z,77.89
2023-02-26T04:31:18.549Z,77.97
2023-02-26T04:32:20.283Z,77.74
2023-02-26T04:33:23.228Z,77.24
2023-02-26T04:34:24.824Z,77.06
2023-02-26T04:35:26.398Z,77.26
2023-02-26T04:36:28.120Z,76.76
2023-02-26T04:37:29.774Z,76.27
2023-02-26T04:38:31.403Z,75.98
2023-02-26T04:39:32.999Z,76.80
2023-02-26T04:40:34.592Z,75.83
2023-02-26T04:41:36.882Z,76.42
2023-02-26T04:42:38.422Z,75.64
2023-02-26T04:43:39.942Z,76.58
2023-02-26T04:44:41.572Z,76.46
2023-02-26T04:45:48.809Z,76.29
2023-02-26T04:46:50.518Z,76.66
2023-02-26T04:47:52.154Z,76.51
2023-02-26T04:48:53.798Z,76.62
2023-02-26T04:49:55.456Z,77.21
2023-02-26T04:50:57.014Z,77.45
2023-02-26T04:51:59.194Z,77.57
2023-02-26T04:53:00.788Z,77.09
2023-02-26T04:54:02.335Z,77.01
2023-02-26T04:55:04.401Z,77.63
2023-02-26T04:56:06.918Z,77.42
2023-02-26T04:57:08.494Z,77.80
2023-02-26T04:58:11.490Z,77.39
2023-02-26T04:59:13.539Z,77.55
2023-02-26T05:00:15.982Z,77.93
2023-02-26T05:01:17.637Z,78.16
2023-02-26T05:02:19.223Z,77.82
2023-02-26T05:03:21.424Z,77.70
2023-02-26T05:04:23.061Z,78.31
2023-02-26T05:05:24.793Z,78.08
2023-02-26T05:06:26.540Z,77.93
2023-02-26T05:07:28.347Z,77.25
2023-02-26T05:08:30.214Z,77.86
2023-02-26T05:09:31.753Z,78.37
2023-02-26T05:10:33.294Z,78.52
2023-02-26T05:11:34.810Z,79.27
2023-02-26T05:12:36.517Z,78.63
2023-02-26T05:13:38.844Z,77.66
2023-02-26T05:14:40.377Z,78.00
2023-02-26T05:15:42.038Z,78.46
2023-02-26T05:16:43.662Z,77.05
2023-02-26T05:17:45.212Z,77.24
2023-02-26T05:18:46.745Z,76.69
2023-02-26T05:19:48.461Z,76.46
2023-02-26T05:20:56.763Z,75.97
2023-02-26T05:21:58.305Z,76.38
2023-02-26T05:22:59.863Z,75.52
2023-02-26T05:24:02.356Z,75.57
2023-02-26T05:25:05.048Z,75.83
2023-02-26T05:26:06.588Z,75.52
2023-02-26T05:27:08.210Z,75.52
2023-02-26T05:28:09.770Z,75.56
2023-02-26T05:29:11.296Z,76.17
2023-02-26T05:30:15.068Z,76.11
2023-02-26T05:31:16.787Z,75.91
2023-02-26T05:32:18.434Z,75.46
2023-02-26T05:33:20.038Z,75.29
2023-02-26T05:34:21.715Z,75.00
2023-02-26T05:35:23.318Z,75.32
2023-02-26T05:36:25.530Z,75.12
2023-02-26T05:37:27.260Z,74.69
2023-02-26T05:38:28.785Z,73.95
2023-02-26T05:39:30.330Z,73.89
2023-02-26T05:40:31.906Z,73.36
2023-02-26T05:41:33.542Z,72.92
2023-02-26T05:42:35.121Z,73.60
2023-02-26T05:43:36.800Z,73.23
2023-02-26T05:44:38.392Z,73.34
2023-02-26T05:45:39.936Z,72.37
2023-02-26T05:46:41.493Z,72.17
2023-02-26T05:47:43.185Z,72.40
2023-02-26T05:48:45.890Z,71.96
2023-02-26T05:49:47.533Z,71.65
2023-02-26T05:50:49.873Z,71.84
2023-02-26T05:51:51.444Z,71.54
2023-02-26T05:52:53.521Z,70.88
2023-02-26T05:53:55.537Z,70.54
2023-02-26T05:54:57.078Z,70.13
2023-02-26T05:55:59.199Z,69.39
2023-02-26T05:57:00.806Z,69.40
2023-02-26T05:58:02.388Z,69.59
2023-02-26T05:59:04.039Z,70.27
2023-02-26T06:00:07.481Z,70.13
2023-02-26T06:01:09.079Z,70.00
2023-02-26T06:02:10.715Z,69.37
2023-02-26T06:03:12.657Z,69.93
2023-02-26T06:04:14.220Z,69.58
2023-02-26T06:05:15.852Z,69.36
2023-02-26T06:06:18.536Z,69.28
2023-02-26T06:07:20.142Z,69.19
2023-02-26T06:08:21.799Z,69.26
2023-02-26T06:09:23.410Z,69.47
2023-02-26T06:10:24.976Z,69.56
2023-02-26T06:11:26.613Z,69.33
2023-02-26T06:12:28.178Z,69.22
2023-02-26T06:13:29.717Z,69.59
2023-02-26T06:14:31.300Z,68.81
2023-02-26T06:15:33.003Z,68.98
2023-02-26T06:16:35.941Z,68.71
2023-02-26T06:17:40.569Z,67.77
2023-02-26T06:18:42.383Z,67.40
2023-02-26T06:19:44.918Z,66.40
2023-02-26T06:20:46.451Z,65.85
2023-02-26T06:21:48.169Z,65.89
2023-02-26T06:22:49.732Z,65.87
2023-02-26T06:23:51.284Z,65.37
2023-02-26T06:24:55.073Z,64.14
2023-02-26T06:25:56.684Z,63.31
2023-02-26T06:26:58.360Z,62.87
2023-02-26T06:27:59.910Z,62.10
2023-02-26T06:29:02.314Z,62.29
2023-02-26T06:30:04.775Z,60.64
2023-02-26T06:31:06.623Z,61.11
2023-02-26T06:32:08.728Z,61.28
2023-02-26T06:33:10.453Z,60.54
2023-02-26T06:34:12.045Z,60.31
2023-02-26T06:35:13.675Z,60.18
2023-02-26T06:36:15.240Z,59.65
2023-02-26T06:37:16.942Z,60.09
2023-02-26T06:38:18.671Z,59.94
2023-02-26T06:39:20.320Z,60.13
2023-02-26T06:40:22.031Z,60.08
2023-02-26T06:41:23.575Z,59.36
2023-02-26T06:42:25.298Z,58.67
2023-02-26T06:43:26.985Z,59.38
2023-02-26T06:44:28.537Z,59.75
2023-02-26T06:45:30.140Z,59.74
2023-02-26T06:46:31.688Z,60.38
2023-02-26T06:47:33.283Z,60.70
2023-02-26T06:48:34.853Z,61.06
2023-02-26T06:49:36.397Z,60.96
2023-02-26T06:50:38.018Z,61.74
2023-02-26T06:51:39.582Z,62.70
2023-02-26T06:52:43.594Z,63.15
2023-02-26T06:53:45.142Z,63.72
2023-02-26T06:54:46.679Z,64.27
2023-02-26T06:55:51.504Z,64.91
2023-02-26T06:56:53.210Z,65.44
2023-02-26T06:57:55.991Z,65.60
2023-02-26T06:58:57.601Z,66.25
2023-02-26T06:59:59.324Z,66.50
2023-02-26T07:01:00.975Z,66.76
2023-02-26T07:02:02.599Z,67.35
2023-02-26T07:03:05.264Z,67.28
2023-02-26T07:04:06.922Z,67.40
2023-02-26T07:05:08.925Z,67.60
2023-02-26T07:06:26.488Z,67.67
2023-02-26T07:07:29.221Z,67.36
2023-02-26T07:08:30.785Z,67.91
2023-02-26T07:09:32.375Z,68.00
2023-02-26T07:10:35.361Z,68.78
2023-02-26T07:11:36.915Z,68.29
2023-02-26T07:12:38.639Z,67.55
2023-02-26T07:13:40.326Z,67.38
2023-02-26T07:14:43.158Z,67.51
2023-02-26T07:15:46.276Z,67.47
2023-02-26T07:16:47.999Z,67.86
2023-02-26T07:17:49.612Z,67.52
2023-02-26T07:18:51.185Z,68.10
2023-02-26T07:19:53.556Z,67.14
2023-02-26T07:20:55.136Z,67.50
2023-02-26T07:21:56.944Z,67.00
2023-02-26T07:22:58.527Z,66.64
2023-02-26T07:24:00.315Z,66.63
2023-02-26T07:25:01.900Z,66.73
2023-02-26T07:26:03.506Z,66.63
2023-02-26T07:27:05.044Z,67.39
2023-02-26T07:28:06.710Z,67.06
2023-02-26T07:29:08.582Z,66.81
2023-02-26T07:30:11.230Z,67.04
2023-02-26T07:31:13.071Z,66.60
2023-02-26T07:32:14.715Z,66.87
2023-02-26T07:33:16.423Z,66.80
2023-02-26T07:34:17.954Z,66.85
2023-02-26T07:35:19.529Z,66.50
2023-02-26T07:36:21.088Z,65.79
2023-02-26T07:37:22.860Z,66.14
2023-02-26T07:38:24.407Z,65.99
2023-02-26T07:39:27.364Z,65.58
2023-02-26T07:40:29.060Z,65.98
2023-02-26T07:41:30.580Z,66.00
2023-02-26T07:42:32.158Z,65.47
2023-02-26T07:43:33.785Z,65.74
2023-02-26T07:44:35.371Z,65.68
2023-02-26T07:45:37.095Z,65.79
2023-02-26T07:46:38.736Z,64.89
2023-02-26T07:47:40.350Z,65.21
2023-02-26T07:48:41.912Z,65.24
2023-02-26T07:49:43.736Z,64.87
2023-02-26T07:50:45.704Z,64.53
2023-02-26T07:51:48.280Z,64.69
2023-02-26T07:52:49.837Z,64.15
2023-02-26T07:53:51.421Z,64.07
2023-02-26T07:54:52.993Z,63.65
2023-02-26T07:55:54.588Z,63.63
2023-02-26T07:56:56.206Z,64.07
2023-02-26T07:57:57.786Z,64.06
2023-02-26T07:58:59.333Z,63.35
2023-02-26T08:00:00.892Z,63.10
2023-02-26T08:01:02.528Z,62.96
2023-02-26T08:02:04.496Z,63.21
2023-02-26T08:03:06.045Z,62.69
2023-02-26T08:04:07.706Z,62.08
2023-02-26T08:05:09.529Z,61.64
2023-02-26T08:06:11.121Z,61.34
2023-02-26T08:07:12.714Z,61.45
2023-02-26T08:08:14.534Z,61.53
2023-02-26T08:09:16.164Z,60.54
2023-02-26T08:10:17.854Z,60.57
2023-02-26T08:11:19.389Z,61.28
2023-02-26T08:12:20.961Z,61.03
2023-02-26T08:13:22.525Z,61.18
2023-02-26T08:14:24.101Z,60.69
2023-02-26T08:15:25.739Z,60.74
2023-02-26T08:16:27.641Z,61.40
2023-02-26T08:17:30.051Z,60.84
2023-02-26T08:18:31.678Z,60.93
2023-02-26T08:19:33.236Z,60.63
2023-02-26T08:20:35.278Z,60.84
2023-02-26T08:21:37.131Z,60.11
2023-02-26T08:22:38.735Z,60.19
2023-02-26T08:23:40.436Z,60.33
2023-02-26T08:24:42.192Z,60.12
2023-02-26T08:25:43.730Z,60.22
2023-02-26T08:26:46.260Z,60.31
2023-02-26T08:27:47.820Z,60.03
2023-02-26T08:28:49.584Z,59.51
2023-02-26T08:29:51.210Z,60.31
2023-02-26T08:30:53.907Z,60.33
2023-02-26T08:31:55.642Z,60.39
2023-02-26T08:32:57.362Z,59.94
2023-02-26T08:33:58.936Z,60.51
2023-02-26T08:35:00.498Z,61.04
2023-02-26T08:36:02.080Z,60.33
2023-02-26T08:37:03.629Z,60.38
2023-02-26T08:38:08.148Z,59.90
2023-02-26T08:39:09.722Z,59.52
2023-02-26T08:40:14.791Z,59.54
2023-02-26T08:41:17.720Z,59.65
2023-02-26T08:42:20.558Z,59.89
2023-02-26T08:43:22.309Z,59.28
2023-02-26T08:44:23.815Z,59.78
2023-02-26T08:45:25.368Z,59.75
2023-02-26T08:46:27.280Z,59.53
2023-02-26T08:47:29.374Z,59.67
2023-02-26T08:48:31.377Z,59.67
2023-02-26T08:49:33.096Z,59.23
2023-02-26T08:50:34.613Z,58.97
2023-02-26T08:51:36.154Z,59.43
2023-02-26T08:52:38.760Z,59.11
2023-02-26T08:53:40.448Z,58.70
2023-02-26T08:54:41.980Z,58.56
2023-02-26T08:55:44.958Z,58.18
2023-02-26T08:56:46.522Z,57.95
2023-02-26T08:57:48.084Z,58.26
2023-02-26T08:58:49.607Z,57.86
2023-02-26T08:59:51.171Z,57.82
2023-02-26T09:00:53.270Z,58.79
2023-02-26T09:01:54.864Z,58.18
2023-02-26T09:02:56.576Z,58.04
2023-02-26T09:03:58.190Z,56.82
2023-02-26T09:04:59.737Z,57.56
2023-02-26T09:06:01.727Z,57.66
2023-02-26T09:07:03.292Z,58.07
2023-02-26T09:08:08.139Z,58.20
2023-02-26T09:09:10.120Z,57.88
2023-02-26T09:10:12.768Z,57.72
2023-02-26T09:11:14.355Z,58.33
2023-02-26T09:12:16.882Z,57.36
2023-02-26T09:13:18.560Z,57.42
2023-02-26T09:14:20.583Z,56.92
2023-02-26T09:15:22.130Z,56.28
2023-02-26T09:16:24.159Z,56.17
2023-02-26T09:17:26.189Z,56.05
2023-02-26T09:18:27.845Z,56.51
2023-02-26T09:19:29.384Z,56.57
2023-02-26T09:20:30.907Z,56.61
2023-02-26T09:21:32.585Z,56.28
2023-02-26T09:22:34.134Z,56.04
2023-02-26T09:23:35.828Z,55.27
2023-02-26T09:24:37.403Z,56.24
2023-02-26T09:25:39.746Z,55.66
2023-02-26T09:26:41.304Z,56.65
2023-02-26T09:27:42.901Z,55.33
2023-02-26T09:28:44.465Z,55.17
2023-02-26T09:29:46.036Z,55.22
2023-02-26T09:30:48.107Z,54.95
2023-02-26T09:31:49.771Z,54.61
2023-02-26T09:32:51.481Z,55.33
2023-02-26T09:33:53.066Z,55.04
2023-02-26T09:34:54.646Z,54.50
2023-02-26T09:35:56.294Z,54.28
2023-02-26T09:36:57.853Z,53.86
2023-02-26T09:37:59.488Z,54.42
2023-02-26T09:39:01.084Z,54.65
2023-02-26T09:40:03.723Z,54.62
2023-02-26T09:41:09.822Z,53.91
2023-02-26T09:42:36.028Z,55.16
2023-02-26T09:43:49.653Z,55.77
2023-02-26T09:44:53.797Z,56.70
2023-02-26T09:45:59.993Z,56.13
2023-02-26T09:47:25.263Z,56.47
2023-02-26T09:48:29.103Z,57.74
2023-02-26T09:49:49.317Z,57.29
2023-02-26T09:50:57.823Z,57.88
2023-02-26T09:52:17.754Z,58.14
2023-02-26T09:53:28.123Z,58.59
2023-02-26T09:54:36.671Z,59.26
2023-02-26T09:55:44.973Z,59.19
2023-02-26T09:56:47.096Z,59.34
2023-02-26T09:57:52.053Z,59.31
2023-02-26T09:58:55.521Z,59.89
2023-02-26T09:59:58.283Z,59.46
2023-02-26T10:01:19.164Z,59.74
2023-02-26T10:02:32.612Z,58.70
2023-02-26T10:04:02.118Z,59.56
2023-02-26T10:06:08.494Z,59.28
2023-02-26T10:07:21.347Z,59.37
2023-02-26T10:08:29.755Z,59.81
2023-02-26T10:10:02.052Z,59.27
2023-02-26T10:11:26.559Z,59.50
2023-02-26T10:12:31.927Z,59.36
2023-02-26T10:13:56.718Z,59.27
2023-02-26T10:15:14.567Z,59.61
2023-02-26T10:16:23.400Z,58.60
2023-02-26T10:17:40.984Z,59.64
2023-02-26T10:18:55.429Z,58.75
2023-02-26T10:20:04.268Z,59.23
2023-02-26T10:21:17.728Z,59.33
2023-02-26T10:22:22.280Z,59.66
2023-02-26T10:23:46.176Z,59.13
2023-02-26T10:24:55.572Z,59.46
2023-02-26T10:26:19.863Z,59.71
2023-02-26T10:27:37.950Z,60.15
2023-02-26T10:29:10.993Z,59.64
2023-02-26T10:30:41.357Z,59.74
2023-02-26T10:32:03.532Z,60.14
2023-02-26T10:33:25.283Z,60.52
2023-02-26T10:34:52.652Z,60.85
2023-02-26T10:35:59.370Z,59.86
2023-02-26T10:37:36.404Z,60.16
2023-02-26T10:38:38.130Z,60.11
2023-02-26T10:39:48.384Z,59.86
2023-02-26T10:40:53.654Z,59.87
2023-02-26T10:41:59.209Z,58.74
2023-02-26T10:43:27.485Z,59.12
2023-02-26T10:44:55.130Z,59.28
2023-02-26T10:45:57.415Z,59.64
2023-02-26T10:47:30.895Z,60.07
2023-02-26T10:48:41.215Z,59.17
2023-02-26T10:50:09.769Z,59.12
2023-02-26T10:51:18.033Z,59.25
2023-02-26T10:52:23.646Z,58.55
2023-02-26T10:53:27.844Z,58.60
2023-02-26T10:54:43.036Z,59.09
2023-02-26T10:56:13.829Z,58.18
2023-02-26T10:57:38.103Z,58.86
2023-02-26T10:58:40.150Z,58.92
2023-02-26T10:59:41.727Z,59.34
2023-02-26T11:00:48.984Z,58.84
2023-02-26T11:01:52.618Z,59.12
2023-02-26T11:02:56.339Z,59.63
2023-02-26T11:04:05.797Z,59.55
2023-02-26T11:05:18.126Z,59.17
2023-02-26T11:06:30.107Z,59.17
2023-02-26T11:07:33.167Z,59.55
2023-02-26T11:08:40.865Z,59.64
2023-02-26T11:09:45.917Z,60.48
2023-02-26T11:10:55.302Z,59.84
2023-02-26T11:12:05.438Z,59.71
2023-02-26T11:13:07.168Z,59.93
2023-02-26T11:14:10.119Z,59.42
2023-02-26T11:15:22.179Z,59.76
2023-02-26T11:16:23.798Z,59.21
2023-02-26T11:17:32.338Z,58.91
2023-02-26T11:18:58.609Z,59.43
2023-02-26T11:20:05.372Z,58.46
2023-02-26T11:21:08.878Z,58.54
2023-02-26T11:22:14.338Z,58.97
2023-02-26T11:23:22.494Z,58.94
2023-02-26T11:24:47.030Z,59.13
2023-02-26T11:25:55.542Z,59.58
2023-02-26T11:27:04.114Z,59.49
2023-02-26T11:28:19.067Z,59.31
2023-02-26T11:29:23.129Z,59.25
2023-02-26T11:30:27.585Z,59.52
2023-02-26T11:31:30.234Z,59.15
2023-02-26T11:32:37.580Z,59.06
2023-02-26T11:33:41.038Z,59.43
2023-02-26T11:34:48.753Z,59.66
2023-02-26T11:35:51.289Z,60.02
2023-02-26T11:36:57.042Z,59.36
2023-02-26T11:38:02.541Z,59.31
2023-02-26T11:39:08.654Z,59.63
2023-02-26T11:40:22.607Z,59.42
2023-02-26T11:41:26.552Z,58.89
2023-02-26T11:42:28.402Z,59.87
2023-02-26T11:43:44.479Z,59.71
2023-02-26T11:44:48.267Z,60.27
2023-02-26T11:46:00.863Z,59.63
2023-02-26T11:47:07.237Z,59.37
2023-02-26T11:48:19.147Z,59.72
2023-02-26T11:49:23.867Z,59.43
2023-02-26T11:50:26.067Z,58.87
2023-02-26T11:51:29.673Z,59.75
2023-02-26T11:52:40.089Z,59.62
2023-02-26T11:54:01.313Z,58.97
2023-02-26T11:55:17.628Z,59.63
2023-02-26T11:56:30.238Z,58.03
2023-02-26T11:57:33.364Z,57.77
2023-02-26T11:58:38.143Z,58.67
2023-02-26T11:59:40.995Z,57.56
2023-02-26T12:00:42.634Z,57.62
2023-02-26T12:01:44.348Z,57.65
2023-02-26T12:02:46.011Z,56.61
2023-02-26T12:03:51.099Z,56.72
2023-02-26T12:04:56.861Z,56.36
2023-02-26T12:06:01.339Z,56.53
2023-02-26T12:07:03.034Z,56.45
2023-02-26T12:08:13.249Z,56.04
2023-02-26T12:09:15.158Z,56.92
2023-02-26T12:10:23.282Z,57.08
2023-02-26T12:11:44.069Z,56.22
2023-02-26T12:12:51.940Z,56.22
2023-02-26T12:14:08.718Z,57.19
2023-02-26T12:15:11.279Z,56.57
2023-02-26T12:16:24.005Z,56.61
2023-02-26T12:17:47.123Z,55.14
2023-02-26T12:18:59.457Z,55.47
2023-02-26T12:20:47.827Z,55.61
2023-02-26T12:21:58.275Z,54.99
2023-02-26T12:23:20.856Z,54.54
2023-02-26T12:24:40.341Z,54.62
2023-02-26T12:25:47.836Z,55.23
2023-02-26T12:26:59.538Z,55.13
2023-02-26T12:28:25.362Z,54.82
2023-02-26T12:30:08.998Z,54.11
2023-02-26T12:31:42.260Z,53.97
2023-02-26T12:33:08.758Z,54.15
2023-02-26T12:34:10.270Z,53.93
2023-02-26T12:35:34.166Z,54.48
2023-02-26T12:36:49.059Z,54.56
2023-02-26T12:38:20.716Z,54.29
2023-02-26T12:39:45.464Z,54.85
2023-02-26T12:40:49.750Z,54.15
2023-02-26T12:42:09.964Z,53.87
2023-02-26T12:43:46.925Z,54.45
2023-02-26T12:44:58.745Z,53.71
2023-02-26T12:46:15.799Z,54.08
2023-02-26T12:47:54.975Z,53.39
2023-02-26T12:49:32.852Z,53.50
2023-02-26T12:50:39.942Z,53.45
2023-02-26T12:52:06.035Z,54.12
2023-02-26T12:53:39.591Z,53.36
2023-02-26T12:55:06.267Z,54.07
2023-02-26T12:56:27.411Z,53.97
2023-02-26T12:58:05.863Z,54.15
2023-02-26T12:59:26.045Z,54.17
2023-02-26T13:00:39.569Z,53.14
2023-02-26T13:02:18.518Z,53.12
2023-02-26T13:03:57.360Z,53.17
2023-02-26T13:05:12.376Z,52.80
2023-02-26T13:06:33.641Z,53.74
2023-02-26T13:08:00.629Z,53.27
2023-02-26T13:09:32.429Z,52.95
2023-02-26T13:10:43.300Z,53.17
2023-02-26T13:11:53.998Z,53.20
2023-02-26T13:13:15.245Z,53.37
2023-02-26T13:14:16.720Z,53.40
2023-02-26T13:15:38.531Z,52.94
2023-02-26T13:16:52.398Z,53.07
2023-02-26T13:17:56.744Z,53.38
2023-02-26T13:19:26.214Z,53.38
2023-02-26T13:20:29.130Z,52.75
2023-02-26T13:21:35.366Z,53.52
2023-02-26T13:22:42.579Z,53.55
2023-02-26T13:24:12.540Z,53.63
2023-02-26T13:25:48.718Z,53.77
2023-02-26T13:26:53.518Z,53.42
2023-02-26T13:27:59.751Z,54.26
2023-02-26T13:29:29.627Z,53.76
2023-02-26T13:30:36.229Z,54.81
2023-02-26T13:31:48.997Z,54.52
2023-02-26T13:32:54.525Z,54.04
2023-02-26T13:33:59.764Z,54.87
2023-02-26T13:35:17.015Z,54.43
2023-02-26T13:36:21.994Z,55.12
2023-02-26T13:37:37.948Z,54.87
2023-02-26T13:39:07.029Z,55.00
2023-02-26T13:40:14.587Z,54.78
2023-02-26T13:41:22.232Z,54.42
2023-02-26T13:42:53.016Z,54.88
2023-02-26T13:44:24.076Z,54.63
2023-02-26T13:45:31.383Z,55.53
2023-02-26T13:47:16.883Z,55.79
2023-02-26T13:48:35.674Z,55.68
2023-02-26T13:50:15.269Z,56.13
2023-02-26T13:51:43.147Z,56.07
2023-02-26T13:53:01.074Z,56.37
2023-02-26T13:54:08.857Z,56.70
2023-02-26T13:55:36.252Z,56.84
2023-02-26T13:56:37.765Z,56.26
2023-02-26T13:57:47.805Z,56.26
2023-02-26T13:58:55.376Z,56.62
2023-02-26T14:00:29.499Z,56.47
2023-02-26T14:01:48.229Z,57.06
2023-02-26T14:03:29.926Z,57.28
2023-02-26T14:04:33.508Z,57.19
2023-02-26T14:05:35.130Z,56.65
2023-02-26T14:06:43.814Z,57.18
2023-02-26T14:07:55.926Z,56.60
2023-02-26T14:09:03.605Z,56.97
2023-02-26T14:10:16.826Z,57.26
2023-02-26T14:11:18.338Z,57.21
2023-02-26T14:12:26.147Z,57.77
2023-02-26T14:13:35.391Z,57.14
2023-02-26T14:14:42.142Z,58.03
2023-02-26T14:15:50.163Z,57.41
2023-02-26T14:17:14.597Z,57.84
2023-02-26T14:18:51.451Z,57.56
2023-02-26T14:19:52.933Z,57.65
2023-02-26T14:21:32.704Z,57.69
2023-02-26T14:22:36.016Z,57.90
2023-02-26T14:23:38.176Z,57.95
2023-02-26T14:24:55.136Z,58.14
2023-02-26T14:26:06.050Z,57.64
2023-02-26T14:27:23.801Z,57.38
2023-02-26T14:28:25.361Z,57.72
2023-02-26T14:29:41.250Z,57.68
2023-02-26T14:30:50.007Z,58.06
2023-02-26T14:32:01.167Z,58.00
2023-02-26T14:33:05.732Z,58.45